sensor_id;sensor_type;location;lat;lon;timestamp;temperature;humidity
29725;DHT22;16636;48.394;15.468;2022-12-18T00:01:26;-1.10;99.90
29725;DHT22;16636;48.394;15.468;2022-12-18T00:03:54;-1.10;99.90
29725;DHT22;16636;48.394;15.468;2022-12-18T00:06:21;-1.10;99.90
29725;DHT22;16636;48.394;15.468;2022-12-18T00:08:48;-1.20;99.90
29725;DHT22;16636;48.394;15.468;2022-12-18T00:11:17;-1.20;99.90
29725;DHT22;16636;48.394;15.468;2022-12-18T00:13:44;-1.30;99.90
29725;DHT22;16636;48.394;15.468;2022-12-18T00:16:13;-1.30;99.90
29725;DHT22;16636;48.394;15.468;2022-12-18T00:18:40;-1.20;99.90
29725;DHT22;16636;48.394;15.468;2022-12-18T00:21:10;-1.30;99.90
29725;DHT22;16636;48.394;15.468;2022-12-18T00:23:37;-1.30;99.90
29725;DHT22;16636;48.394;15.468;2022-12-18T00:26:06;-1.30;99.90
29725;DHT22;16636;48.394;15.468;2022-12-18T00:28:33;-1.40;99.90
29725;DHT22;16636;48.394;15.468;2022-12-18T00:31:10;-1.40;99.90
29725;DHT22;16636;48.394;15.468;2022-12-18T00:33:37;-1.50;99.90
29725;DHT22;16636;48.394;15.468;2022-12-18T00:36:14;-1.50;99.90
29725;DHT22;16636;48.394;15.468;2022-12-18T00:38:41;-1.50;99.90
29725;DHT22;16636;48.394;15.468;2022-12-18T00:41:10;-1.50;99.90
29725;DHT22;16636;48.394;15.468;2022-12-18T00:43:37;-1.50;99.90
29725;DHT22;16636;48.394;15.468;2022-12-18T00:46:04;-1.40;99.90
29725;DHT22;16636;48.394;15.468;2022-12-18T00:48:32;-1.40;99.90
29725;DHT22;16636;48.394;15.468;2022-12-18T00:50:58;-1.50;99.90
29725;DHT22;16636;48.394;15.468;2022-12-18T00:53:24;-1.50;99.90
29725;DHT22;16636;48.394;15.468;2022-12-18T00:55:50;-1.60;99.90
29725;DHT22;16636;48.394;15.468;2022-12-18T00:58:16;-1.60;99.90
29725;DHT22;16636;48.394;15.468;2022-12-18T01:00:43;-1.70;99.90
29725;DHT22;16636;48.394;15.468;2022-12-18T01:03:13;-1.70;99.90
29725;DHT22;16636;48.394;15.468;2022-12-18T01:05:40;-1.60;99.90
29725;DHT22;16636;48.394;15.468;2022-12-18T01:08:07;-1.70;99.90
29725;DHT22;16636;48.394;15.468;2022-12-18T01:10:33;-1.70;99.90
29725;DHT22;16636;48.394;15.468;2022-12-18T01:12:59;-1.60;99.90
29725;DHT22;16636;48.394;15.468;2022-12-18T01:15:25;-1.70;99.90
29725;DHT22;16636;48.394;15.468;2022-12-18T01:17:52;-1.70;99.90
29725;DHT22;16636;48.394;15.468;2022-12-18T01:20:19;-1.70;99.90
29725;DHT22;16636;48.394;15.468;2022-12-18T01:22:45;-1.70;99.90
29725;DHT22;16636;48.394;15.468;2022-12-18T01:25:11;-1.70;99.90
29725;DHT22;16636;48.394;15.468;2022-12-18T01:27:37;-1.70;99.90
29725;DHT22;16636;48.394;15.468;2022-12-18T01:30:04;-1.70;99.90
29725;DHT22;16636;48.394;15.468;2022-12-18T01:32:31;-1.70;99.90
29725;DHT22;16636;48.394;15.468;2022-12-18T01:34:57;-1.80;99.90
29725;DHT22;16636;48.394;15.468;2022-12-18T01:37:23;-1.80;99.90
29725;DHT22;16636;48.394;15.468;2022-12-18T01:39:50;-1.80;99.90
29725;DHT22;16636;48.394;15.468;2022-12-18T01:42:19;-1.80;99.90
29725;DHT22;16636;48.394;15.468;2022-12-18T01:47:49;-1.80;99.90
29725;DHT22;16636;48.394;15.468;2022-12-18T01:50:17;-1.90;99.90
29725;DHT22;16636;48.394;15.468;2022-12-18T01:52:51;-1.80;99.90
29725;DHT22;16636;48.394;15.468;2022-12-18T01:55:22;-1.90;99.90
29725;DHT22;16636;48.394;15.468;2022-12-18T01:57:52;-1.90;99.90
29725;DHT22;16636;48.394;15.468;2022-12-18T02:00:21;-1.90;99.90
29725;DHT22;16636;48.394;15.468;2022-12-18T02:02:50;-1.90;99.90
29725;DHT22;16636;48.394;15.468;2022-12-18T02:05:41;-1.90;99.90
29725;DHT22;16636;48.394;15.468;2022-12-18T02:19:53;-2.10;99.90
29725;DHT22;16636;48.394;15.468;2022-12-18T02:26:19;-2.10;99.90
29725;DHT22;16636;48.394;15.468;2022-12-18T02:28:21;-2.10;99.90
29725;DHT22;16636;48.394;15.468;2022-12-18T02:30:51;-2.10;99.90
29725;DHT22;16636;48.394;15.468;2022-12-18T02:33:20;-2.20;99.90
29725;DHT22;16636;48.394;15.468;2022-12-18T02:35:47;-2.10;99.90
29725;DHT22;16636;48.394;15.468;2022-12-18T02:38:14;-2.10;99.90
29725;DHT22;16636;48.394;15.468;2022-12-18T02:40:44;-2.20;99.90
29725;DHT22;16636;48.394;15.468;2022-12-18T02:43:16;-2.20;99.90
29725;DHT22;16636;48.394;15.468;2022-12-18T02:45:54;-2.20;99.90
29725;DHT22;16636;48.394;15.468;2022-12-18T02:48:27;-2.20;99.90
29725;DHT22;16636;48.394;15.468;2022-12-18T02:51:11;-2.20;99.90
29725;DHT22;16636;48.394;15.468;2022-12-18T02:54:02;-2.20;99.90
29725;DHT22;16636;48.394;15.468;2022-12-18T02:56:50;-2.20;99.90
29725;DHT22;16636;48.394;15.468;2022-12-18T02:59:40;-2.30;99.90
29725;DHT22;16636;48.394;15.468;2022-12-18T03:02:30;-2.30;99.90
29725;DHT22;16636;48.394;15.468;2022-12-18T03:05:07;-2.40;99.90
29725;DHT22;16636;48.394;15.468;2022-12-18T03:07:42;-2.50;99.90
29725;DHT22;16636;48.394;15.468;2022-12-18T03:10:15;-2.50;99.90
29725;DHT22;16636;48.394;15.468;2022-12-18T03:12:59;-2.50;99.90
29725;DHT22;16636;48.394;15.468;2022-12-18T03:15:31;-2.50;99.90
29725;DHT22;16636;48.394;15.468;2022-12-18T03:20:44;-2.50;99.90
29725;DHT22;16636;48.394;15.468;2022-12-18T03:23:24;-2.50;99.90
29725;DHT22;16636;48.394;15.468;2022-12-18T03:25:55;-2.50;99.90
29725;DHT22;16636;48.394;15.468;2022-12-18T03:28:27;-2.50;99.90
29725;DHT22;16636;48.394;15.468;2022-12-18T03:31:00;-2.50;99.90
29725;DHT22;16636;48.394;15.468;2022-12-18T03:33:55;-2.50;99.90
29725;DHT22;16636;48.394;15.468;2022-12-18T03:36:27;-2.50;99.90
29725;DHT22;16636;48.394;15.468;2022-12-18T03:38:54;-2.50;99.90
29725;DHT22;16636;48.394;15.468;2022-12-18T03:41:29;-2.50;99.90
29725;DHT22;16636;48.394;15.468;2022-12-18T03:44:45;-2.50;99.90
29725;DHT22;16636;48.394;15.468;2022-12-18T03:52:52;-2.60;99.90
29725;DHT22;16636;48.394;15.468;2022-12-18T03:55:21;-2.60;99.90
29725;DHT22;16636;48.394;15.468;2022-12-18T03:57:54;-2.60;99.90
29725;DHT22;16636;48.394;15.468;2022-12-18T04:00:20;-2.70;99.90
29725;DHT22;16636;48.394;15.468;2022-12-18T04:03:02;-2.70;99.90
29725;DHT22;16636;48.394;15.468;2022-12-18T04:05:37;-2.70;99.90
29725;DHT22;16636;48.394;15.468;2022-12-18T04:08:04;-2.70;99.90
29725;DHT22;16636;48.394;15.468;2022-12-18T04:10:35;-2.80;99.90
29725;DHT22;16636;48.394;15.468;2022-12-18T04:13:01;-2.80;99.90
29725;DHT22;16636;48.394;15.468;2022-12-18T04:15:28;-2.80;99.90
29725;DHT22;16636;48.394;15.468;2022-12-18T04:17:55;-2.80;99.90
29725;DHT22;16636;48.394;15.468;2022-12-18T04:20:23;-2.80;99.90
29725;DHT22;16636;48.394;15.468;2022-12-18T04:22:49;-2.80;99.90
29725;DHT22;16636;48.394;15.468;2022-12-18T04:25:18;-2.80;99.90
29725;DHT22;16636;48.394;15.468;2022-12-18T04:27:55;-2.80;99.90
29725;DHT22;16636;48.394;15.468;2022-12-18T04:30:22;-2.90;99.90
29725;DHT22;16636;48.394;15.468;2022-12-18T04:32:48;-2.90;99.90
29725;DHT22;16636;48.394;15.468;2022-12-18T04:35:14;-2.90;99.90
29725;DHT22;16636;48.394;15.468;2022-12-18T04:37:42;-2.90;99.90
29725;DHT22;16636;48.394;15.468;2022-12-18T04:40:10;-2.90;99.90
29725;DHT22;16636;48.394;15.468;2022-12-18T04:42:40;-3.00;99.90
29725;DHT22;16636;48.394;15.468;2022-12-18T04:45:07;-3.00;99.90
29725;DHT22;16636;48.394;15.468;2022-12-18T04:47:33;-3.00;99.90
29725;DHT22;16636;48.394;15.468;2022-12-18T04:49:59;-3.00;99.90
29725;DHT22;16636;48.394;15.468;2022-12-18T04:52:26;-3.00;99.90
29725;DHT22;16636;48.394;15.468;2022-12-18T04:54:53;-3.00;99.90
29725;DHT22;16636;48.394;15.468;2022-12-18T04:57:19;-3.10;99.90
29725;DHT22;16636;48.394;15.468;2022-12-18T04:59:45;-3.10;99.90
29725;DHT22;16636;48.394;15.468;2022-12-18T05:02:11;-3.10;99.90
29725;DHT22;16636;48.394;15.468;2022-12-18T05:04:37;-3.10;99.90
29725;DHT22;16636;48.394;15.468;2022-12-18T05:07:03;-3.10;99.90
29725;DHT22;16636;48.394;15.468;2022-12-18T05:09:29;-3.10;99.90
29725;DHT22;16636;48.394;15.468;2022-12-18T05:11:55;-3.10;99.90
29725;DHT22;16636;48.394;15.468;2022-12-18T05:14:21;-3.20;99.90
29725;DHT22;16636;48.394;15.468;2022-12-18T05:16:47;-3.20;99.90
29725;DHT22;16636;48.394;15.468;2022-12-18T05:19:13;-3.20;99.90
29725;DHT22;16636;48.394;15.468;2022-12-18T05:21:39;-3.20;99.90
29725;DHT22;16636;48.394;15.468;2022-12-18T05:24:05;-3.20;99.90
29725;DHT22;16636;48.394;15.468;2022-12-18T05:26:31;-3.20;99.90
29725;DHT22;16636;48.394;15.468;2022-12-18T05:28:57;-3.20;99.90
29725;DHT22;16636;48.394;15.468;2022-12-18T05:31:23;-3.30;99.90
29725;DHT22;16636;48.394;15.468;2022-12-18T05:33:49;-3.30;99.90
29725;DHT22;16636;48.394;15.468;2022-12-18T05:36:15;-3.30;99.90
29725;DHT22;16636;48.394;15.468;2022-12-18T05:38:41;-3.30;99.90
29725;DHT22;16636;48.394;15.468;2022-12-18T05:41:08;-3.30;99.90
29725;DHT22;16636;48.394;15.468;2022-12-18T05:43:36;-3.30;99.90
29725;DHT22;16636;48.394;15.468;2022-12-18T05:46:14;-3.40;99.90
29725;DHT22;16636;48.394;15.468;2022-12-18T05:48:41;-3.40;99.90
29725;DHT22;16636;48.394;15.468;2022-12-18T05:51:12;-3.40;99.90
29725;DHT22;16636;48.394;15.468;2022-12-18T05:53:40;-3.40;99.90
29725;DHT22;16636;48.394;15.468;2022-12-18T05:56:12;-3.40;99.90
29725;DHT22;16636;48.394;15.468;2022-12-18T05:58:38;-3.40;99.90
29725;DHT22;16636;48.394;15.468;2022-12-18T06:01:11;-3.40;99.90
29725;DHT22;16636;48.394;15.468;2022-12-18T06:03:39;-3.30;99.90
29725;DHT22;16636;48.394;15.468;2022-12-18T06:06:13;-3.30;99.90
29725;DHT22;16636;48.394;15.468;2022-12-18T06:08:39;-3.40;99.90
29725;DHT22;16636;48.394;15.468;2022-12-18T06:11:05;-3.30;99.90
29725;DHT22;16636;48.394;15.468;2022-12-18T06:13:31;-3.30;99.90
29725;DHT22;16636;48.394;15.468;2022-12-18T06:15:57;-3.40;99.90
29725;DHT22;16636;48.394;15.468;2022-12-18T06:18:23;-3.50;99.90
29725;DHT22;16636;48.394;15.468;2022-12-18T06:20:59;-3.50;99.90
29725;DHT22;16636;48.394;15.468;2022-12-18T06:23:26;-3.50;99.90
29725;DHT22;16636;48.394;15.468;2022-12-18T06:25:52;-3.40;99.90
29725;DHT22;16636;48.394;15.468;2022-12-18T06:28:19;-3.40;99.90
29725;DHT22;16636;48.394;15.468;2022-12-18T06:30:46;-3.40;99.90
29725;DHT22;16636;48.394;15.468;2022-12-18T06:33:12;-3.40;99.90
29725;DHT22;16636;48.394;15.468;2022-12-18T06:35:38;-3.50;99.90
29725;DHT22;16636;48.394;15.468;2022-12-18T06:38:05;-3.50;99.90
29725;DHT22;16636;48.394;15.468;2022-12-18T06:40:31;-3.50;99.90
29725;DHT22;16636;48.394;15.468;2022-12-18T06:42:57;-3.50;99.90
29725;DHT22;16636;48.394;15.468;2022-12-18T06:45:24;-3.50;99.90
29725;DHT22;16636;48.394;15.468;2022-12-18T06:47:50;-3.40;99.90
29725;DHT22;16636;48.394;15.468;2022-12-18T06:50:16;-3.50;99.90
29725;DHT22;16636;48.394;15.468;2022-12-18T06:52:42;-3.50;99.90
29725;DHT22;16636;48.394;15.468;2022-12-18T06:55:10;-3.50;99.90
29725;DHT22;16636;48.394;15.468;2022-12-18T06:57:37;-3.50;99.90
29725;DHT22;16636;48.394;15.468;2022-12-18T07:00:05;-3.50;99.90
29725;DHT22;16636;48.394;15.468;2022-12-18T07:02:32;-3.50;99.90
29725;DHT22;16636;48.394;15.468;2022-12-18T07:04:58;-3.50;99.90
29725;DHT22;16636;48.394;15.468;2022-12-18T07:07:24;-3.50;99.90
29725;DHT22;16636;48.394;15.468;2022-12-18T07:09:51;-3.60;99.90
29725;DHT22;16636;48.394;15.468;2022-12-18T07:12:17;-3.60;99.90
29725;DHT22;16636;48.394;15.468;2022-12-18T07:14:43;-3.60;99.90
29725;DHT22;16636;48.394;15.468;2022-12-18T07:17:10;-3.60;99.90
29725;DHT22;16636;48.394;15.468;2022-12-18T07:19:36;-3.60;99.90
29725;DHT22;16636;48.394;15.468;2022-12-18T07:22:02;-3.60;99.90
29725;DHT22;16636;48.394;15.468;2022-12-18T07:24:28;-3.60;99.90
29725;DHT22;16636;48.394;15.468;2022-12-18T07:26:54;-3.60;99.90
29725;DHT22;16636;48.394;15.468;2022-12-18T07:29:21;-3.60;99.90
29725;DHT22;16636;48.394;15.468;2022-12-18T07:31:47;-3.60;99.90
29725;DHT22;16636;48.394;15.468;2022-12-18T07:34:13;-3.50;99.90
29725;DHT22;16636;48.394;15.468;2022-12-18T07:36:40;-3.50;99.90
29725;DHT22;16636;48.394;15.468;2022-12-18T07:39:07;-3.50;99.90
29725;DHT22;16636;48.394;15.468;2022-12-18T07:41:33;-3.50;99.90
29725;DHT22;16636;48.394;15.468;2022-12-18T07:44:09;-3.50;99.90
29725;DHT22;16636;48.394;15.468;2022-12-18T07:46:35;-3.50;99.90
29725;DHT22;16636;48.394;15.468;2022-12-18T07:49:01;-3.50;99.90
29725;DHT22;16636;48.394;15.468;2022-12-18T07:51:27;-3.50;99.90
29725;DHT22;16636;48.394;15.468;2022-12-18T07:53:53;-3.40;99.90
29725;DHT22;16636;48.394;15.468;2022-12-18T07:56:20;-3.40;99.90
29725;DHT22;16636;48.394;15.468;2022-12-18T07:58:46;-3.40;99.90
29725;DHT22;16636;48.394;15.468;2022-12-18T08:01:12;-3.40;99.90
29725;DHT22;16636;48.394;15.468;2022-12-18T08:03:39;-3.40;99.90
29725;DHT22;16636;48.394;15.468;2022-12-18T08:06:08;-3.40;99.90
29725;DHT22;16636;48.394;15.468;2022-12-18T08:08:35;-3.40;99.90
29725;DHT22;16636;48.394;15.468;2022-12-18T08:11:02;-3.40;99.90
29725;DHT22;16636;48.394;15.468;2022-12-18T08:13:28;-3.40;99.90
29725;DHT22;16636;48.394;15.468;2022-12-18T08:15:58;-3.30;99.90
29725;DHT22;16636;48.394;15.468;2022-12-18T08:18:25;-3.30;99.90
29725;DHT22;16636;48.394;15.468;2022-12-18T08:20:51;-3.30;99.90
29725;DHT22;16636;48.394;15.468;2022-12-18T08:23:17;-3.30;99.90
29725;DHT22;16636;48.394;15.468;2022-12-18T08:25:43;-3.20;99.90
29725;DHT22;16636;48.394;15.468;2022-12-18T08:28:10;-3.20;99.90
29725;DHT22;16636;48.394;15.468;2022-12-18T08:30:36;-3.20;99.90
29725;DHT22;16636;48.394;15.468;2022-12-18T08:33:03;-3.20;99.90
29725;DHT22;16636;48.394;15.468;2022-12-18T08:35:29;-3.10;99.90
29725;DHT22;16636;48.394;15.468;2022-12-18T08:37:55;-3.10;99.90
29725;DHT22;16636;48.394;15.468;2022-12-18T08:40:21;-3.10;99.90
29725;DHT22;16636;48.394;15.468;2022-12-18T08:42:47;-3.10;99.90
29725;DHT22;16636;48.394;15.468;2022-12-18T08:45:34;-3.10;99.90
29725;DHT22;16636;48.394;15.468;2022-12-18T08:48:00;-3.10;99.90
29725;DHT22;16636;48.394;15.468;2022-12-18T08:50:26;-3.00;99.90
29725;DHT22;16636;48.394;15.468;2022-12-18T08:52:52;-3.00;99.90
29725;DHT22;16636;48.394;15.468;2022-12-18T08:55:18;-3.00;99.90
29725;DHT22;16636;48.394;15.468;2022-12-18T08:57:48;-3.00;99.90
29725;DHT22;16636;48.394;15.468;2022-12-18T09:00:15;-2.90;99.90
29725;DHT22;16636;48.394;15.468;2022-12-18T09:02:41;-2.90;99.90
29725;DHT22;16636;48.394;15.468;2022-12-18T09:05:07;-2.90;99.90
29725;DHT22;16636;48.394;15.468;2022-12-18T09:07:33;-2.90;99.90
29725;DHT22;16636;48.394;15.468;2022-12-18T09:09:59;-2.80;99.90
29725;DHT22;16636;48.394;15.468;2022-12-18T09:12:26;-2.80;99.90
29725;DHT22;16636;48.394;15.468;2022-12-18T09:14:52;-2.80;99.90
29725;DHT22;16636;48.394;15.468;2022-12-18T09:17:18;-2.80;99.90
29725;DHT22;16636;48.394;15.468;2022-12-18T09:19:44;-2.70;99.90
29725;DHT22;16636;48.394;15.468;2022-12-18T09:22:10;-2.70;99.90
29725;DHT22;16636;48.394;15.468;2022-12-18T09:24:35;-2.70;99.90
29725;DHT22;16636;48.394;15.468;2022-12-18T09:27:02;-2.70;99.90
29725;DHT22;16636;48.394;15.468;2022-12-18T09:29:29;-2.70;99.90
29725;DHT22;16636;48.394;15.468;2022-12-18T09:31:56;-2.60;99.90
29725;DHT22;16636;48.394;15.468;2022-12-18T09:34:22;-2.60;99.90
29725;DHT22;16636;48.394;15.468;2022-12-18T09:36:48;-2.60;99.90
29725;DHT22;16636;48.394;15.468;2022-12-18T09:39:15;-2.60;99.90
29725;DHT22;16636;48.394;15.468;2022-12-18T09:41:51;-2.60;99.90
29725;DHT22;16636;48.394;15.468;2022-12-18T09:45:01;-2.60;99.90
29725;DHT22;16636;48.394;15.468;2022-12-18T09:49:45;-2.60;99.90
29725;DHT22;16636;48.394;15.468;2022-12-18T09:52:40;-2.60;99.90
29725;DHT22;16636;48.394;15.468;2022-12-18T09:58:02;-2.50;99.90
29725;DHT22;16636;48.394;15.468;2022-12-18T10:00:30;-2.50;99.90
29725;DHT22;16636;48.394;15.468;2022-12-18T10:03:11;-2.50;99.90
29725;DHT22;16636;48.394;15.468;2022-12-18T10:28:21;-2.40;99.90
29725;DHT22;16636;48.394;15.468;2022-12-18T10:30:48;-2.30;99.90
29725;DHT22;16636;48.394;15.468;2022-12-18T10:33:20;-2.30;99.90
29725;DHT22;16636;48.394;15.468;2022-12-18T10:35:49;-2.30;99.90
29725;DHT22;16636;48.394;15.468;2022-12-18T10:41:00;-2.30;99.90
29725;DHT22;16636;48.394;15.468;2022-12-18T10:43:29;-2.30;99.90
29725;DHT22;16636;48.394;15.468;2022-12-18T10:46:03;-2.30;99.90
29725;DHT22;16636;48.394;15.468;2022-12-18T10:48:33;-2.30;99.90
29725;DHT22;16636;48.394;15.468;2022-12-18T10:51:00;-2.30;99.90
29725;DHT22;16636;48.394;15.468;2022-12-18T10:53:28;-2.30;99.90
29725;DHT22;16636;48.394;15.468;2022-12-18T10:55:57;-2.30;99.90
29725;DHT22;16636;48.394;15.468;2022-12-18T10:58:35;-2.30;99.90
29725;DHT22;16636;48.394;15.468;2022-12-18T11:01:11;-2.30;99.90
29725;DHT22;16636;48.394;15.468;2022-12-18T11:06:16;-2.30;99.90
29725;DHT22;16636;48.394;15.468;2022-12-18T11:08:46;-2.30;99.90
29725;DHT22;16636;48.394;15.468;2022-12-18T11:11:23;-2.30;99.90
29725;DHT22;16636;48.394;15.468;2022-12-18T11:13:56;-2.30;99.90
29725;DHT22;16636;48.394;15.468;2022-12-18T11:16:23;-2.30;99.90
29725;DHT22;16636;48.394;15.468;2022-12-18T11:18:49;-2.20;99.90
29725;DHT22;16636;48.394;15.468;2022-12-18T11:21:16;-2.20;99.90
29725;DHT22;16636;48.394;15.468;2022-12-18T11:23:50;-2.30;99.90
29725;DHT22;16636;48.394;15.468;2022-12-18T11:26:17;-2.30;99.90
29725;DHT22;16636;48.394;15.468;2022-12-18T11:28:52;-2.30;99.90
29725;DHT22;16636;48.394;15.468;2022-12-18T11:34:03;-2.30;99.90
29725;DHT22;16636;48.394;15.468;2022-12-18T11:36:34;-2.30;99.90
29725;DHT22;16636;48.394;15.468;2022-12-18T11:39:55;-2.20;99.90
29725;DHT22;16636;48.394;15.468;2022-12-18T11:49:53;-2.20;99.90
29725;DHT22;16636;48.394;15.468;2022-12-18T11:52:36;-2.20;99.90
29725;DHT22;16636;48.394;15.468;2022-12-18T11:55:27;-2.20;99.90
29725;DHT22;16636;48.394;15.468;2022-12-18T12:03:55;-2.20;99.90
29725;DHT22;16636;48.394;15.468;2022-12-18T12:11:56;-2.20;99.90
29725;DHT22;16636;48.394;15.468;2022-12-18T12:15:00;-2.20;99.90
29725;DHT22;16636;48.394;15.468;2022-12-18T12:20:23;-2.20;99.90
29725;DHT22;16636;48.394;15.468;2022-12-18T12:25:52;-2.30;99.90
29725;DHT22;16636;48.394;15.468;2022-12-18T12:28:56;-2.30;99.90
29725;DHT22;16636;48.394;15.468;2022-12-18T12:36:52;-2.30;99.90
29725;DHT22;16636;48.394;15.468;2022-12-18T12:39:23;-2.30;99.90
29725;DHT22;16636;48.394;15.468;2022-12-18T12:41:50;-2.30;99.90
29725;DHT22;16636;48.394;15.468;2022-12-18T12:44:55;-2.40;99.90
29725;DHT22;16636;48.394;15.468;2022-12-18T12:47:30;-2.40;99.90
29725;DHT22;16636;48.394;15.468;2022-12-18T12:49:59;-2.40;99.90
29725;DHT22;16636;48.394;15.468;2022-12-18T12:52:29;-2.40;99.90
29725;DHT22;16636;48.394;15.468;2022-12-18T12:54:56;-2.40;99.90
29725;DHT22;16636;48.394;15.468;2022-12-18T12:57:37;-2.40;99.90
29725;DHT22;16636;48.394;15.468;2022-12-18T13:00:14;-2.40;99.90
29725;DHT22;16636;48.394;15.468;2022-12-18T13:02:59;-2.40;99.90
29725;DHT22;16636;48.394;15.468;2022-12-18T13:05:39;-2.50;99.90
29725;DHT22;16636;48.394;15.468;2022-12-18T13:08:09;-2.50;99.90
29725;DHT22;16636;48.394;15.468;2022-12-18T13:10:39;-2.50;99.90
29725;DHT22;16636;48.394;15.468;2022-12-18T13:13:15;-2.50;99.90
29725;DHT22;16636;48.394;15.468;2022-12-18T13:16:03;-2.50;99.90
29725;DHT22;16636;48.394;15.468;2022-12-18T13:18:29;-2.50;99.90
29725;DHT22;16636;48.394;15.468;2022-12-18T13:33:48;-2.50;99.90
29725;DHT22;16636;48.394;15.468;2022-12-18T13:36:27;-2.60;99.90
29725;DHT22;16636;48.394;15.468;2022-12-18T13:44:41;-2.60;99.90
29725;DHT22;16636;48.394;15.468;2022-12-18T13:47:34;-2.60;99.90
29725;DHT22;16636;48.394;15.468;2022-12-18T13:50:09;-2.60;99.90
29725;DHT22;16636;48.394;15.468;2022-12-18T13:52:37;-2.60;99.90
29725;DHT22;16636;48.394;15.468;2022-12-18T13:55:10;-2.60;99.90
29725;DHT22;16636;48.394;15.468;2022-12-18T13:57:40;-2.60;99.90
29725;DHT22;16636;48.394;15.468;2022-12-18T14:00:32;-2.60;99.90
29725;DHT22;16636;48.394;15.468;2022-12-18T14:02:59;-2.60;99.90
29725;DHT22;16636;48.394;15.468;2022-12-18T14:05:31;-2.60;99.90
29725;DHT22;16636;48.394;15.468;2022-12-18T14:08:06;-2.60;99.90
29725;DHT22;16636;48.394;15.468;2022-12-18T14:10:33;-2.70;99.90
29725;DHT22;16636;48.394;15.468;2022-12-18T14:13:06;-2.70;99.90
29725;DHT22;16636;48.394;15.468;2022-12-18T14:15:43;-2.70;99.90
29725;DHT22;16636;48.394;15.468;2022-12-18T14:20:56;-2.70;99.90
29725;DHT22;16636;48.394;15.468;2022-12-18T14:25:58;-2.70;99.90
29725;DHT22;16636;48.394;15.468;2022-12-18T14:28:25;-2.70;99.90
29725;DHT22;16636;48.394;15.468;2022-12-18T14:30:52;-2.70;99.90
29725;DHT22;16636;48.394;15.468;2022-12-18T14:33:21;-2.70;99.90
29725;DHT22;16636;48.394;15.468;2022-12-18T14:36:13;-2.70;99.90
29725;DHT22;16636;48.394;15.468;2022-12-18T14:38:40;-2.70;99.90
29725;DHT22;16636;48.394;15.468;2022-12-18T14:41:12;-2.70;99.90
29725;DHT22;16636;48.394;15.468;2022-12-18T14:43:40;-2.70;99.90
29725;DHT22;16636;48.394;15.468;2022-12-18T14:48:54;-2.70;99.90
29725;DHT22;16636;48.394;15.468;2022-12-18T14:51:26;-2.70;99.90
29725;DHT22;16636;48.394;15.468;2022-12-18T14:54:06;-2.70;99.90
29725;DHT22;16636;48.394;15.468;2022-12-18T14:56:46;-2.70;99.90
29725;DHT22;16636;48.394;15.468;2022-12-18T14:59:21;-2.70;99.90
29725;DHT22;16636;48.394;15.468;2022-12-18T15:04:38;-2.70;99.90
29725;DHT22;16636;48.394;15.468;2022-12-18T15:07:22;-2.70;99.90
29725;DHT22;16636;48.394;15.468;2022-12-18T15:20:46;-2.70;99.90
29725;DHT22;16636;48.394;15.468;2022-12-18T15:23:14;-2.70;99.90
29725;DHT22;16636;48.394;15.468;2022-12-18T15:25:41;-2.70;99.90
29725;DHT22;16636;48.394;15.468;2022-12-18T15:28:23;-2.70;99.90
29725;DHT22;16636;48.394;15.468;2022-12-18T15:33:35;-2.70;99.90
29725;DHT22;16636;48.394;15.468;2022-12-18T15:36:04;-2.70;99.90
29725;DHT22;16636;48.394;15.468;2022-12-18T15:38:31;-2.80;99.90
29725;DHT22;16636;48.394;15.468;2022-12-18T15:40:57;-2.80;99.90
29725;DHT22;16636;48.394;15.468;2022-12-18T15:43:25;-2.80;99.90
29725;DHT22;16636;48.394;15.468;2022-12-18T15:46:02;-2.80;99.90
29725;DHT22;16636;48.394;15.468;2022-12-18T15:48:28;-2.80;99.90
29725;DHT22;16636;48.394;15.468;2022-12-18T15:50:56;-2.80;99.90
29725;DHT22;16636;48.394;15.468;2022-12-18T15:53:28;-2.80;99.90
29725;DHT22;16636;48.394;15.468;2022-12-18T15:55:55;-2.80;99.90
29725;DHT22;16636;48.394;15.468;2022-12-18T15:58:39;-2.80;99.90
29725;DHT22;16636;48.394;15.468;2022-12-18T16:01:08;-2.80;99.90
29725;DHT22;16636;48.394;15.468;2022-12-18T16:03:34;-2.80;99.90
29725;DHT22;16636;48.394;15.468;2022-12-18T16:06:00;-2.80;99.90
29725;DHT22;16636;48.394;15.468;2022-12-18T16:08:30;-2.80;99.90
29725;DHT22;16636;48.394;15.468;2022-12-18T16:10:57;-2.80;99.90
29725;DHT22;16636;48.394;15.468;2022-12-18T16:13:23;-2.80;99.90
29725;DHT22;16636;48.394;15.468;2022-12-18T16:15:50;-2.80;99.90
29725;DHT22;16636;48.394;15.468;2022-12-18T16:18:16;-2.80;99.90
29725;DHT22;16636;48.394;15.468;2022-12-18T16:20:42;-2.80;99.90
29725;DHT22;16636;48.394;15.468;2022-12-18T16:23:08;-2.80;99.90
29725;DHT22;16636;48.394;15.468;2022-12-18T16:25:34;-2.80;99.90
29725;DHT22;16636;48.394;15.468;2022-12-18T16:28:00;-2.80;99.90
29725;DHT22;16636;48.394;15.468;2022-12-18T16:30:31;-2.80;99.90
29725;DHT22;16636;48.394;15.468;2022-12-18T16:32:58;-2.80;99.90
29725;DHT22;16636;48.394;15.468;2022-12-18T16:35:25;-2.70;99.90
29725;DHT22;16636;48.394;15.468;2022-12-18T16:37:51;-2.70;99.90
29725;DHT22;16636;48.394;15.468;2022-12-18T16:40:17;-2.70;99.90
29725;DHT22;16636;48.394;15.468;2022-12-18T16:42:45;-2.80;99.90
29725;DHT22;16636;48.394;15.468;2022-12-18T16:45:14;-2.70;99.90
29725;DHT22;16636;48.394;15.468;2022-12-18T16:47:41;-2.70;99.90
29725;DHT22;16636;48.394;15.468;2022-12-18T16:50:08;-2.70;99.90
29725;DHT22;16636;48.394;15.468;2022-12-18T16:52:35;-2.70;99.90
29725;DHT22;16636;48.394;15.468;2022-12-18T16:55:01;-2.70;99.90
29725;DHT22;16636;48.394;15.468;2022-12-18T16:57:27;-2.70;99.90
29725;DHT22;16636;48.394;15.468;2022-12-18T16:59:53;-2.70;99.90
29725;DHT22;16636;48.394;15.468;2022-12-18T17:02:21;-2.70;99.90
29725;DHT22;16636;48.394;15.468;2022-12-18T17:04:48;-2.70;99.90
29725;DHT22;16636;48.394;15.468;2022-12-18T17:07:15;-2.70;99.90
29725;DHT22;16636;48.394;15.468;2022-12-18T17:09:41;-2.70;99.90
29725;DHT22;16636;48.394;15.468;2022-12-18T17:12:08;-2.70;99.90
29725;DHT22;16636;48.394;15.468;2022-12-18T17:14:35;-2.70;99.90
29725;DHT22;16636;48.394;15.468;2022-12-18T17:17:01;-2.70;99.90
29725;DHT22;16636;48.394;15.468;2022-12-18T17:19:28;-2.70;99.90
29725;DHT22;16636;48.394;15.468;2022-12-18T17:21:54;-2.70;99.90
29725;DHT22;16636;48.394;15.468;2022-12-18T17:24:20;-2.70;99.90
29725;DHT22;16636;48.394;15.468;2022-12-18T17:26:47;-2.70;99.90
29725;DHT22;16636;48.394;15.468;2022-12-18T17:29:15;-2.70;99.90
29725;DHT22;16636;48.394;15.468;2022-12-18T17:31:42;-2.60;99.90
29725;DHT22;16636;48.394;15.468;2022-12-18T17:34:09;-2.70;99.90
29725;DHT22;16636;48.394;15.468;2022-12-18T17:36:36;-2.60;99.90
29725;DHT22;16636;48.394;15.468;2022-12-18T17:39:04;-2.70;99.90
29725;DHT22;16636;48.394;15.468;2022-12-18T17:41:30;-2.60;99.90
29725;DHT22;16636;48.394;15.468;2022-12-18T17:44:03;-2.60;99.90
29725;DHT22;16636;48.394;15.468;2022-12-18T17:46:31;-2.60;99.90
29725;DHT22;16636;48.394;15.468;2022-12-18T17:48:59;-2.60;99.90